aviador You're here:

CYKJ Decoded Metar

KEY LAKE in SK, CANADA
Report Time2018-02-22 14:00:00
UTC Time2018-02-22 14:59:02
Flight Rules vfr VFR
Wind300° at 16 Gusting to 26 kt
W.Decomp.*RWY 21: 2.8 kt HW 15.8 kt RCW
W.Rank300° ranks 1
Current wind is above 300° avg. (8.7)
Visibility9999 m
Phenomena:N/A
Clouds:N/A
Expected CloudBase > 1,600 ft AGL from Temp-Dew spread
CeilingNone
Temp-15°C (ISA -27)
Dew Point-19°C (72% RH)
AAT-24.3°C
QNH1008 hPa
Density Alt-1,493 ft
Elevation1,670 ft
Report Wrong Elevation
Raw Report
CYKJ 221400Z AUTO 30016G26KT 9SM CLR M15/M19 A2976 RMK SLP130=

Extra information for CYKJ:More info

Metar Taf Metar & Taf Last 4 Metars F.Rules Stats Wind Profile Meteogram Temp Stats Airport Information Weather charts Add Link Nearby VenuesMetar ALERT Operation Metar Decoded Social comments